Time;durP1;ratioP1;P1;durP2;ratioP2;P2;SDS_P1;SDS_P2;PMS_P1;PMS_P2;Temp;Humidity;BMP_temperature;BMP_pressure;BME280_temperature;BME280_humidity;BME280_pressure;Samples;Min_cycle;Max_cycle;Signal;HPM_P1;HPM_P2
2023/10/25 00:02:12;;;;;;;21.90;11.35;;;;;;;;;;5032750;28;20030;-60
2023/10/25 00:04:37;;;;;;;19.23;11.02;;;;;;;;;;5032332;28;20037;-60
2023/10/25 00:07:04;;;;;;;20.25;11.30;;;;;;;;;;5032455;28;20022;-57
2023/10/25 00:09:30;;;;;;;19.65;10.57;;;;;;;;;;5014359;28;20025;-59
2023/10/25 00:11:56;;;;;;;19.10;10.38;;;;;;;;;;5032337;28;20053;-59
2023/10/25 00:14:22;;;;;;;18.45;10.18;;;;;;;;;;5014547;28;20022;-60
2023/10/25 00:16:48;;;;;;;17.92;10.70;;;;;;;;;;5032037;28;20522;-58
2023/10/25 00:19:14;;;;;;;18.38;9.82;;;;;;;;;;5014671;28;20034;-58
2023/10/25 00:21:40;;;;;;;21.77;10.80;;;;;;;;;;5014264;28;20582;-58
2023/10/25 00:24:06;;;;;;;20.13;10.52;;;;;;;;;;5032004;28;20028;-57
2023/10/25 00:26:32;;;;;;;19.05;9.85;;;;;;;;;;5014829;28;20480;-59
2023/10/25 00:28:59;;;;;;;21.77;11.52;;;;;;;;;;5032484;28;20132;-59
2023/10/25 00:31:25;;;;;;;18.73;9.73;;;;;;;;;;5032247;28;20423;-61
2023/10/25 00:33:51;;;;;;;20.77;11.48;;;;;;;;;;5032390;28;20029;-60
2023/10/25 00:36:17;;;;;;;17.48;9.50;;;;;;;;;;5031883;28;20021;-56
2023/10/25 00:38:43;;;;;;;18.08;9.70;;;;;;;;;;5031398;28;20041;-59
2023/10/25 00:41:09;;;;;;;18.42;9.98;;;;;;;;;;5030825;28;20080;-56
2023/10/25 00:43:38;;;;;;;20.10;9.65;;;;;;;;;;5031333;28;20112;-60
2023/10/25 00:46:15;;;;;;;17.85;10.05;;;;;;;;;;5032067;28;20033;-59
2023/10/25 00:48:43;;;;;;;18.08;9.23;;;;;;;;;;5027472;28;20025;-60
2023/10/25 00:51:09;;;;;;;21.38;10.00;;;;;;;;;;5029073;28;20029;-58
2023/10/25 00:53:37;;;;;;;17.90;9.68;;;;;;;;;;5030729;28;20037;-62
2023/10/25 00:56:04;;;;;;;19.17;10.00;;;;;;;;;;5013547;28;20027;-58
2023/10/25 00:58:31;;;;;;;18.23;9.10;;;;;;;;;;5030889;28;20077;-56
2023/10/25 01:00:58;;;;;;;19.67;9.55;;;;;;;;;;5013435;28;20037;-57
2023/10/25 01:03:24;;;;;;;18.42;9.13;;;;;;;;;;5030761;28;20216;-58
2023/10/25 01:05:51;;;;;;;20.13;9.45;;;;;;;;;;5031722;28;20021;-56
2023/10/25 01:08:20;;;;;;;19.38;9.57;;;;;;;;;;5031924;28;20029;-60
2023/10/25 01:10:52;;;;;;;26.98;9.80;;;;;;;;;;5032190;28;20082;-60
2023/10/25 01:13:19;;;;;;;19.58;10.13;;;;;;;;;;5031830;28;20552;-59
2023/10/25 01:15:45;;;;;;;19.00;9.57;;;;;;;;;;5014335;28;20021;-60
2023/10/25 01:18:11;;;;;;;16.65;9.32;;;;;;;;;;5031826;28;20108;-59
2023/10/25 01:20:37;;;;;;;17.55;9.38;;;;;;;;;;5031285;28;20594;-60
2023/10/25 01:23:03;;;;;;;16.60;9.40;;;;;;;;;;5032018;28;20143;-60
2023/10/25 01:25:29;;;;;;;20.38;10.43;;;;;;;;;;5031760;28;20026;-59
2023/10/25 01:27:55;;;;;;;18.48;10.20;;;;;;;;;;5031493;28;20030;-59
2023/10/25 01:30:22;;;;;;;17.40;9.30;;;;;;;;;;5031241;28;20025;-60
2023/10/25 01:32:47;;;;;;;15.80;9.18;;;;;;;;;;5031848;28;20026;-60
2023/10/25 01:35:14;;;;;;;15.85;9.20;;;;;;;;;;5031783;28;20151;-59
2023/10/25 01:37:40;;;;;;;19.65;9.73;;;;;;;;;;5031364;28;20410;-58
2023/10/25 01:40:06;;;;;;;18.58;9.60;;;;;;;;;;5031563;28;20029;-60
2023/10/25 01:42:32;;;;;;;15.68;9.70;;;;;;;;;;5031010;28;20030;-59
2023/10/25 01:45:00;;;;;;;21.40;9.45;;;;;;;;;;5013629;28;20028;-59
2023/10/25 01:47:26;;;;;;;17.48;9.48;;;;;;;;;;5031724;28;20095;-60
2023/10/25 01:49:52;;;;;;;19.33;9.73;;;;;;;;;;5031753;28;20025;-58
2023/10/25 01:52:18;;;;;;;15.80;9.18;;;;;;;;;;5031548;28;20039;-61
2023/10/25 01:54:46;;;;;;;16.90;9.50;;;;;;;;;;5031234;28;20097;-60
2023/10/25 01:57:12;;;;;;;18.08;9.77;;;;;;;;;;5031729;28;20017;-58
2023/10/25 01:59:38;;;;;;;18.60;9.63;;;;;;;;;;5031173;28;20042;-60
2023/10/25 02:02:04;;;;;;;16.65;9.35;;;;;;;;;;5030896;28;20542;-59
2023/10/25 02:04:30;;;;;;;17.33;9.60;;;;;;;;;;5031939;28;20017;-59
2023/10/25 02:06:56;;;;;;;18.23;9.70;;;;;;;;;;5031144;28;20071;-60
2023/10/25 02:09:22;;;;;;;17.45;9.90;;;;;;;;;;5031199;28;20379;-60
2023/10/25 02:11:48;;;;;;;19.67;9.93;;;;;;;;;;5031390;28;20028;-61
2023/10/25 02:14:15;;;;;;;17.63;10.48;;;;;;;;;;5032188;28;20021;-57
2023/10/25 02:16:41;;;;;;;18.30;9.88;;;;;;;;;;5032089;28;20037;-59
2023/10/25 02:19:08;;;;;;;21.15;10.82;;;;;;;;;;5031473;28;20025;-60
2023/10/25 02:21:37;;;;;;;17.80;9.98;;;;;;;;;;5014547;28;20028;-61
2023/10/25 02:24:03;;;;;;;19.73;9.82;;;;;;;;;;5031894;28;20112;-59
2023/10/25 02:26:29;;;;;;;18.98;10.02;;;;;;;;;;5031281;28;20025;-61
2023/10/25 02:28:56;;;;;;;16.63;10.52;;;;;;;;;;5031581;28;20107;-56
2023/10/25 02:31:22;;;;;;;20.05;11.18;;;;;;;;;;5031497;28;20503;-62
2023/10/25 02:33:48;;;;;;;20.73;10.77;;;;;;;;;;5032363;28;20033;-61
2023/10/25 02:36:14;;;;;;;22.10;11.10;;;;;;;;;;5031799;28;20029;-61
2023/10/25 02:38:40;;;;;;;22.27;11.55;;;;;;;;;;5031759;28;20092;-60
2023/10/25 02:41:06;;;;;;;20.75;10.98;;;;;;;;;;5013304;28;20025;-60
2023/10/25 02:43:32;;;;;;;17.58;10.85;;;;;;;;;;5013128;28;20037;-60
2023/10/25 02:46:02;;;;;;;22.10;10.80;;;;;;;;;;5030840;28;20025;-61
2023/10/25 02:48:28;;;;;;;19.65;10.88;;;;;;;;;;5031505;28;20790;-61
2023/10/25 02:50:54;;;;;;;21.35;11.88;;;;;;;;;;5030878;28;20037;-60
2023/10/25 02:53:21;;;;;;;20.75;12.05;;;;;;;;;;5030516;28;20033;-60
2023/10/25 02:55:47;;;;;;;24.00;12.88;;;;;;;;;;5030665;28;20401;-60
2023/10/25 02:58:14;;;;;;;21.20;11.65;;;;;;;;;;5030567;28;20021;-60
2023/10/25 03:00:40;;;;;;;18.52;11.23;;;;;;;;;;5012765;28;20022;-60
2023/10/25 03:03:06;;;;;;;19.35;11.07;;;;;;;;;;5030829;28;20521;-60
2023/10/25 03:05:32;;;;;;;22.65;11.35;;;;;;;;;;5033105;28;20032;-59
2023/10/25 03:07:58;;;;;;;18.77;10.90;;;;;;;;;;5016888;28;20108;-61
2023/10/25 03:10:24;;;;;;;19.23;11.27;;;;;;;;;;5034527;28;20022;-59
2023/10/25 03:12:50;;;;;;;20.90;11.27;;;;;;;;;;5034152;28;20032;-60
2023/10/25 03:15:16;;;;;;;21.30;12.13;;;;;;;;;;5034271;28;20029;-61
2023/10/25 03:17:42;;;;;;;19.95;11.20;;;;;;;;;;5034638;28;20381;-58
2023/10/25 03:20:08;;;;;;;20.83;11.13;;;;;;;;;;5016121;28;20025;-60
2023/10/25 03:22:34;;;;;;;18.27;11.07;;;;;;;;;;5033945;28;20049;-58
2023/10/25 03:25:00;;;;;;;20.05;10.75;;;;;;;;;;5033775;28;20029;-59
2023/10/25 03:27:26;;;;;;;21.20;11.82;;;;;;;;;;5034194;28;20021;-59
2023/10/25 03:29:53;;;;;;;18.52;11.52;;;;;;;;;;5033580;28;20035;-59
2023/10/25 03:32:19;;;;;;;20.77;11.05;;;;;;;;;;5033889;28;20034;-59
2023/10/25 03:34:45;;;;;;;22.17;11.98;;;;;;;;;;5034276;28;20025;-61
2023/10/25 03:37:11;;;;;;;20.67;10.88;;;;;;;;;;5034268;28;20542;-59
2023/10/25 03:39:37;;;;;;;19.40;10.98;;;;;;;;;;5033849;28;20044;-56
2023/10/25 03:42:03;;;;;;;21.33;11.85;;;;;;;;;;5033462;28;20077;-59
2023/10/25 03:44:29;;;;;;;20.25;11.23;;;;;;;;;;5033907;28;20407;-59
2023/10/25 03:46:56;;;;;;;25.60;11.48;;;;;;;;;;5033851;28;20426;-58
2023/10/25 03:49:22;;;;;;;21.50;11.77;;;;;;;;;;5033164;28;20058;-59
2023/10/25 03:51:48;;;;;;;21.77;11.93;;;;;;;;;;5033617;28;20105;-59
2023/10/25 03:54:14;;;;;;;19.23;10.80;;;;;;;;;;5015661;28;20441;-59
2023/10/25 03:56:42;;;;;;;21.80;11.68;;;;;;;;;;5033850;28;20029;-59
2023/10/25 03:59:08;;;;;;;23.17;12.23;;;;;;;;;;5015355;28;20029;-59
2023/10/25 04:01:34;;;;;;;19.52;11.70;;;;;;;;;;5016040;28;20487;-58
2023/10/25 04:03:59;;;;;;;21.25;11.95;;;;;;;;;;5032981;28;20030;-58
2023/10/25 04:06:25;;;;;;;21.88;11.73;;;;;;;;;;5033899;28;20526;-59
2023/10/25 04:08:51;;;;;;;20.10;11.88;;;;;;;;;;5033174;28;20034;-59
2023/10/25 04:11:17;;;;;;;17.98;11.45;;;;;;;;;;5033340;28;20034;-60
2023/10/25 04:13:43;;;;;;;18.75;11.25;;;;;;;;;;5033033;28;20040;-62
2023/10/25 04:16:09;;;;;;;19.25;11.23;;;;;;;;;;5014362;28;20070;-61
2023/10/25 04:18:36;;;;;;;20.67;11.88;;;;;;;;;;5015106;28;20057;-61
2023/10/25 04:21:03;;;;;;;21.40;11.48;;;;;;;;;;5032401;28;20517;-59
2023/10/25 04:23:31;;;;;;;18.65;11.18;;;;;;;;;;5032674;28;20052;-58
2023/10/25 04:26:07;;;;;;;18.23;10.77;;;;;;;;;;5033273;28;20026;-60
2023/10/25 04:28:33;;;;;;;18.88;10.95;;;;;;;;;;5033172;28;20029;-59
2023/10/25 04:30:59;;;;;;;19.70;11.25;;;;;;;;;;5033225;28;20581;-62
2023/10/25 04:33:26;;;;;;;19.63;11.48;;;;;;;;;;5032853;28;20496;-61
2023/10/25 04:35:52;;;;;;;19.35;12.02;;;;;;;;;;5032744;28;20030;-59
2023/10/25 04:38:18;;;;;;;19.45;11.32;;;;;;;;;;5015331;28;20053;-61
2023/10/25 04:40:44;;;;;;;20.02;11.35;;;;;;;;;;5032615;28;20048;-57
2023/10/25 04:43:10;;;;;;;20.95;11.70;;;;;;;;;;5014937;28;20497;-60
2023/10/25 04:45:36;;;;;;;18.27;11.32;;;;;;;;;;5032143;28;20028;-60
2023/10/25 04:48:02;;;;;;;19.50;12.00;;;;;;;;;;5032598;28;20443;-59
2023/10/25 04:50:34;;;;;;;19.35;11.20;;;;;;;;;;5014788;28;20513;-63
2023/10/25 04:53:02;;;;;;;21.33;11.95;;;;;;;;;;5032421;28;20083;-57
2023/10/25 04:55:29;;;;;;;19.23;11.60;;;;;;;;;;5033016;28;20025;-62
2023/10/25 04:57:56;;;;;;;18.13;11.30;;;;;;;;;;5032963;28;20132;-60
2023/10/25 05:00:22;;;;;;;19.25;11.48;;;;;;;;;;5032815;28;20025;-61
2023/10/25 05:02:48;;;;;;;20.15;11.63;;;;;;;;;;5070339;22;20053;-54
2023/10/25 05:05:14;;;;;;;19.55;11.40;;;;;;;;;;5030441;28;20025;-52
2023/10/25 05:07:40;;;;;;;17.40;10.75;;;;;;;;;;5030140;28;20036;-54
2023/10/25 05:10:07;;;;;;;17.58;11.13;;;;;;;;;;5012688;28;20071;-52
2023/10/25 05:12:38;;;;;;;22.50;12.40;;;;;;;;;;5030518;28;20025;-53
2023/10/25 05:15:15;;;;;;;19.85;12.38;;;;;;;;;;5029074;28;20105;-51
2023/10/25 05:17:42;;;;;;;18.58;11.65;;;;;;;;;;5030667;28;20402;-50
2023/10/25 05:20:08;;;;;;;20.42;11.20;;;;;;;;;;5030338;28;20387;-52
2023/10/25 05:22:35;;;;;;;23.25;11.60;;;;;;;;;;5028594;28;20072;-50
2023/10/25 05:25:02;;;;;;;17.13;10.85;;;;;;;;;;5030270;28;20025;-49
2023/10/25 05:27:28;;;;;;;19.42;11.15;;;;;;;;;;5028528;28;20025;-51
2023/10/25 05:29:54;;;;;;;22.50;11.13;;;;;;;;;;5029890;28;20079;-52
2023/10/25 05:32:20;;;;;;;18.63;10.75;;;;;;;;;;5046670;28;20529;-53
2023/10/25 05:34:48;;;;;;;18.63;10.93;;;;;;;;;;5049919;28;20116;-53
2023/10/25 05:37:14;;;;;;;19.17;10.87;;;;;;;;;;5034163;28;20029;-51
2023/10/25 05:39:40;;;;;;;19.92;10.88;;;;;;;;;;5029382;28;20034;-52
2023/10/25 05:42:08;;;;;;;21.60;11.93;;;;;;;;;;5029639;28;20479;-51
2023/10/25 05:44:34;;;;;;;21.58;10.95;;;;;;;;;;5029580;28;20347;-48
2023/10/25 05:47:00;;;;;;;20.77;10.77;;;;;;;;;;5029586;28;20070;-49
2023/10/25 05:49:26;;;;;;;20.92;11.27;;;;;;;;;;5029456;28;20822;-51
2023/10/25 05:51:53;;;;;;;20.98;11.45;;;;;;;;;;5029405;28;20030;-50
2023/10/25 05:54:19;;;;;;;18.58;11.27;;;;;;;;;;5029505;28;20032;-49
2023/10/25 05:56:45;;;;;;;19.25;11.82;;;;;;;;;;5029226;28;20025;-55
2023/10/25 05:59:11;;;;;;;18.63;11.25;;;;;;;;;;5029264;28;20112;-46
2023/10/25 06:01:50;;;;;;;18.77;11.48;;;;;;;;;;5029009;28;20420;-49
2023/10/25 06:04:18;;;;;;;20.10;11.32;;;;;;;;;;5029537;28;20033;-48
2023/10/25 06:06:45;;;;;;;19.65;11.68;;;;;;;;;;5029617;28;20024;-54
2023/10/25 06:09:12;;;;;;;21.77;12.25;;;;;;;;;;5028356;28;20029;-47
2023/10/25 06:11:39;;;;;;;21.05;11.07;;;;;;;;;;5040187;28;20025;-52
2023/10/25 06:14:05;;;;;;;21.20;12.85;;;;;;;;;;5035311;28;20487;-51
2023/10/25 06:16:31;;;;;;;21.50;11.50;;;;;;;;;;5029672;28;20025;-54
2023/10/25 06:18:57;;;;;;;20.25;11.43;;;;;;;;;;5029633;28;20026;-49
2023/10/25 06:21:23;;;;;;;22.48;12.48;;;;;;;;;;5029199;28;20473;-51
2023/10/25 06:23:51;;;;;;;19.10;12.13;;;;;;;;;;5029443;28;20097;-52
2023/10/25 06:26:17;;;;;;;21.73;12.85;;;;;;;;;;5029483;28;20049;-53
2023/10/25 06:28:43;;;;;;;19.85;11.55;;;;;;;;;;5029413;28;20116;-50
2023/10/25 06:31:15;;;;;;;21.08;12.80;;;;;;;;;;5029084;28;20108;-46
2023/10/25 06:33:41;;;;;;;22.85;12.02;;;;;;;;;;5028866;28;20033;-55
2023/10/25 06:36:07;;;;;;;22.50;12.95;;;;;;;;;;5029150;28;20029;-52
2023/10/25 06:38:34;;;;;;;21.92;12.73;;;;;;;;;;5027601;28;20036;-45
2023/10/25 06:41:00;;;;;;;21.98;12.63;;;;;;;;;;5031481;28;21984;-50
2023/10/25 06:43:28;;;;;;;20.33;12.30;;;;;;;;;;5034011;28;20021;-50
2023/10/25 06:45:54;;;;;;;23.02;13.30;;;;;;;;;;5052832;28;20029;-50
2023/10/25 06:48:21;;;;;;;20.50;12.90;;;;;;;;;;5026681;28;20041;-51
2023/10/25 06:50:47;;;;;;;22.95;13.63;;;;;;;;;;5031539;28;20017;-50
2023/10/25 06:53:13;;;;;;;23.20;14.13;;;;;;;;;;5041555;28;20037;-53
2023/10/25 06:55:39;;;;;;;21.00;13.13;;;;;;;;;;5033454;28;20021;-55
2023/10/25 06:58:05;;;;;;;24.13;12.82;;;;;;;;;;5039491;28;20028;-52
2023/10/25 07:00:31;;;;;;;20.98;12.98;;;;;;;;;;5054421;28;20114;-53
2023/10/25 07:03:02;;;;;;;19.27;12.70;;;;;;;;;;5045619;28;20048;-54
2023/10/25 07:05:28;;;;;;;22.20;12.50;;;;;;;;;;5050216;28;20059;-50
2023/10/25 07:07:55;;;;;;;24.17;12.48;;;;;;;;;;5042535;28;20387;-50
2023/10/25 07:10:21;;;;;;;22.27;12.35;;;;;;;;;;5042402;28;20018;-48
2023/10/25 07:12:48;;;;;;;20.95;12.32;;;;;;;;;;5036607;28;20025;-53
2023/10/25 07:15:14;;;;;;;22.20;12.98;;;;;;;;;;5034040;28;20055;-57
2023/10/25 07:17:44;;;;;;;20.83;12.80;;;;;;;;;;5058781;28;20499;-54
2023/10/25 07:20:11;;;;;;;21.60;12.65;;;;;;;;;;5051556;28;20485;-54
2023/10/25 07:22:38;;;;;;;22.10;12.55;;;;;;;;;;5058297;28;20071;-57
2023/10/25 07:25:04;;;;;;;19.80;13.07;;;;;;;;;;5047773;28;20385;-57
2023/10/25 07:27:30;;;;;;;23.10;12.63;;;;;;;;;;5039312;28;20035;-56
2023/10/25 07:29:56;;;;;;;23.38;13.73;;;;;;;;;;5040329;28;20025;-54
2023/10/25 07:32:22;;;;;;;22.77;13.05;;;;;;;;;;5048460;28;20566;-55
2023/10/25 07:34:49;;;;;;;20.50;12.15;;;;;;;;;;5037800;28;20025;-59
2023/10/25 07:37:15;;;;;;;21.02;12.27;;;;;;;;;;5041126;28;20028;-57
2023/10/25 07:39:41;;;;;;;21.48;12.30;;;;;;;;;;5051986;28;20043;-56
2023/10/25 07:42:08;;;;;;;20.13;11.73;;;;;;;;;;5036593;28;20113;-52
2023/10/25 07:44:34;;;;;;;18.83;12.68;;;;;;;;;;5032547;28;20033;-52
2023/10/25 07:47:00;;;;;;;19.63;12.93;;;;;;;;;;5032632;28;20029;-56
2023/10/25 07:49:26;;;;;;;25.65;13.18;;;;;;;;;;5031958;28;20108;-53
2023/10/25 07:51:54;;;;;;;20.77;13.10;;;;;;;;;;5030649;28;20112;-54
2023/10/25 07:54:20;;;;;;;20.98;12.57;;;;;;;;;;5031531;28;20507;-54
2023/10/25 07:56:46;;;;;;;21.55;12.73;;;;;;;;;;5030383;28;20446;-55
2023/10/25 07:59:12;;;;;;;19.95;12.55;;;;;;;;;;5031923;28;20518;-54
2023/10/25 08:01:39;;;;;;;20.77;13.55;;;;;;;;;;5031991;28;20056;-54
2023/10/25 08:04:06;;;;;;;18.52;12.10;;;;;;;;;;5031817;28;20095;-53
2023/10/25 08:06:32;;;;;;;22.13;12.38;;;;;;;;;;5031721;28;20147;-56
2023/10/25 08:08:59;;;;;;;19.85;12.18;;;;;;;;;;5030417;28;20018;-54
2023/10/25 08:11:25;;;;;;;21.17;11.70;;;;;;;;;;5030430;28;20036;-53
2023/10/25 08:13:51;;;;;;;20.98;11.80;;;;;;;;;;5031647;28;20033;-56
2023/10/25 08:16:17;;;;;;;18.33;11.23;;;;;;;;;;5039502;28;20029;-53
2023/10/25 08:18:43;;;;;;;19.58;11.30;;;;;;;;;;5051288;28;20059;-54
2023/10/25 08:21:13;;;;;;;18.33;11.50;;;;;;;;;;5049845;28;20021;-57
2023/10/25 08:23:39;;;;;;;16.27;11.10;;;;;;;;;;5031855;28;20028;-56
2023/10/25 08:26:05;;;;;;;17.85;10.68;;;;;;;;;;5031630;28;20105;-56
2023/10/25 08:28:31;;;;;;;18.02;11.07;;;;;;;;;;5031285;28;20033;-51
2023/10/25 08:30:57;;;;;;;18.65;11.30;;;;;;;;;;5030663;28;20028;-54
2023/10/25 08:33:23;;;;;;;20.20;10.98;;;;;;;;;;5030941;28;20100;-52
2023/10/25 08:35:49;;;;;;;17.13;10.60;;;;;;;;;;5040109;28;20093;-57
2023/10/25 08:38:15;;;;;;;21.58;11.25;;;;;;;;;;5030700;28;20277;-55
2023/10/25 08:40:42;;;;;;;18.15;10.57;;;;;;;;;;5030885;28;20104;-53
2023/10/25 08:43:08;;;;;;;17.02;10.95;;;;;;;;;;5031006;28;20074;-51
2023/10/25 08:45:35;;;;;;;24.27;11.98;;;;;;;;;;5031631;28;20107;-57
2023/10/25 08:48:04;;;;;;;17.02;10.20;;;;;;;;;;5030576;28;20013;-56
2023/10/25 08:50:33;;;;;;;17.40;10.80;;;;;;;;;;5031218;28;20056;-56
2023/10/25 08:53:00;;;;;;;18.15;10.88;;;;;;;;;;5029539;28;20032;-52
2023/10/25 08:55:26;;;;;;;18.05;10.23;;;;;;;;;;5030766;28;20287;-55
2023/10/25 08:57:56;;;;;;;16.73;10.55;;;;;;;;;;5030877;28;20506;-54
2023/10/25 09:00:22;;;;;;;20.00;10.80;;;;;;;;;;5030501;28;20131;-52
2023/10/25 09:02:49;;;;;;;16.70;9.25;;;;;;;;;;5030094;28;20434;-54
2023/10/25 09:05:15;;;;;;;16.17;9.60;;;;;;;;;;5030813;28;20022;-54
2023/10/25 09:07:41;;;;;;;16.08;10.18;;;;;;;;;;5030985;28;20079;-55
2023/10/25 09:10:22;;;;;;;16.80;9.82;;;;;;;;;;5029284;28;20025;-56
2023/10/25 09:12:49;;;;;;;14.90;9.48;;;;;;;;;;5030636;28;20029;-54
2023/10/25 09:15:28;;;;;;;16.20;9.65;;;;;;;;;;5030587;28;20553;-54
2023/10/25 09:17:54;;;;;;;;;;;;;;;;;;5031224;28;20060;-53
2023/10/25 09:20:26;;;;;;;17.27;9.77;;;;;;;;;;5029270;28;20374;-54
2023/10/25 09:22:54;;;;;;;16.35;10.07;;;;;;;;;;5030392;28;20026;-49
2023/10/25 09:25:29;;;;;;;16.88;10.43;;;;;;;;;;5030673;28;20479;-53
2023/10/25 09:27:55;;;;;;;16.55;9.80;;;;;;;;;;5029512;28;20129;-57
2023/10/25 09:30:21;;;;;;;17.45;10.10;;;;;;;;;;5028436;28;20528;-56
2023/10/25 09:32:48;;;;;;;18.02;9.98;;;;;;;;;;5028715;28;20025;-55
2023/10/25 09:35:14;;;;;;;16.10;9.68;;;;;;;;;;5028768;28;20104;-55
2023/10/25 09:37:40;;;;;;;16.15;9.80;;;;;;;;;;5029040;28;20515;-56
2023/10/25 09:40:06;;;;;;;17.58;9.40;;;;;;;;;;5028426;28;20029;-57
2023/10/25 09:42:32;;;;;;;15.10;9.65;;;;;;;;;;5028715;28;20044;-53
2023/10/25 09:45:03;;;;;;;15.77;10.07;;;;;;;;;;5030301;28;20033;-51
2023/10/25 09:47:29;;;;;;;18.70;9.70;;;;;;;;;;5030401;28;20022;-51
2023/10/25 09:50:01;;;;;;;16.27;9.95;;;;;;;;;;5030030;28;20271;-50
2023/10/25 09:52:29;;;;;;;15.38;9.30;;;;;;;;;;5030554;28;20387;-54
2023/10/25 09:55:09;;;;;;;17.03;9.83;;;;;;;;;;5028839;28;20030;-49
2023/10/25 09:57:36;;;;;;;15.52;9.80;;;;;;;;;;5030421;28;20033;-56
2023/10/25 10:00:02;;;;;;;17.58;9.93;;;;;;;;;;5029860;28;20035;-53
2023/10/25 10:02:47;;;;;;;16.00;9.77;;;;;;;;;;5029403;28;20037;-56
2023/10/25 10:05:33;;;;;;;18.88;10.05;;;;;;;;;;5029928;28;20024;-52
2023/10/25 10:08:09;;;;;;;18.85;9.50;;;;;;;;;;5022798;28;20056;-53
2023/10/25 10:10:39;;;;;;;16.52;9.40;;;;;;;;;;5029851;28;20037;-54
2023/10/25 10:13:15;;;;;;;17.65;10.00;;;;;;;;;;5028311;28;20086;-54
2023/10/25 10:16:04;;;;;;;16.30;10.18;;;;;;;;;;5033926;28;20021;-54
2023/10/25 10:18:37;;;;;;;20.33;10.32;;;;;;;;;;5034416;28;20116;-55
2023/10/25 10:21:06;;;;;;;15.65;9.65;;;;;;;;;;5033960;28;20029;-55
2023/10/25 10:23:39;;;;;;;16.77;9.68;;;;;;;;;;5033607;28;20082;-53
2023/10/25 10:26:06;;;;;;;16.83;9.73;;;;;;;;;;5033647;28;20017;-56
2023/10/25 10:28:42;;;;;;;16.58;9.68;;;;;;;;;;5032661;28;20029;-56
2023/10/25 10:31:11;;;;;;;16.88;9.52;;;;;;;;;;5033392;28;20104;-51
2023/10/25 10:33:44;;;;;;;15.48;10.05;;;;;;;;;;5033630;28;20026;-53
2023/10/25 10:36:10;;;;;;;17.55;10.38;;;;;;;;;;5033541;28;20022;-52
2023/10/25 10:38:55;;;;;;;18.67;10.18;;;;;;;;;;5033194;28;20017;-54
2023/10/25 10:41:28;;;;;;;16.13;10.43;;;;;;;;;;5032884;28;20028;-56
2023/10/25 10:43:54;;;;;;;18.45;10.13;;;;;;;;;;5033210;28;20021;-53
2023/10/25 10:46:20;;;;;;;17.83;9.80;;;;;;;;;;5031920;28;20026;-53
2023/10/25 10:48:47;;;;;;;15.30;10.30;;;;;;;;;;5032683;28;20037;-54
2023/10/25 10:51:13;;;;;;;19.25;10.30;;;;;;;;;;5032861;28;20021;-55
2023/10/25 10:53:39;;;;;;;15.98;10.65;;;;;;;;;;5031356;28;20031;-54
2023/10/25 10:56:05;;;;;;;17.90;10.10;;;;;;;;;;5033486;28;20391;-55
2023/10/25 10:58:31;;;;;;;21.05;10.63;;;;;;;;;;5033409;28;20091;-51
2023/10/25 11:00:58;;;;;;;18.65;10.25;;;;;;;;;;5033055;28;20463;-55
2023/10/25 11:03:27;;;;;;;16.58;10.10;;;;;;;;;;5054302;22;20048;-55
2023/10/25 11:05:53;;;;;;;17.40;10.30;;;;;;;;;;5051800;28;20021;-53
2023/10/25 11:08:21;;;;;;;16.67;10.40;;;;;;;;;;5033924;28;20036;-56
2023/10/25 11:10:47;;;;;;;17.17;10.80;;;;;;;;;;5051861;28;20021;-55
2023/10/25 11:13:13;;;;;;;16.52;10.55;;;;;;;;;;5051638;28;20075;-54
2023/10/25 11:15:39;;;;;;;20.02;10.80;;;;;;;;;;5051910;28;20024;-55
2023/10/25 11:18:07;;;;;;;16.58;10.38;;;;;;;;;;5050181;28;20126;-52
2023/10/25 11:20:33;;;;;;;20.05;10.43;;;;;;;;;;5051416;28;20052;-55
2023/10/25 11:22:59;;;;;;;17.88;10.93;;;;;;;;;;5051818;28;20052;-57
2023/10/25 11:25:27;;;;;;;18.60;10.60;;;;;;;;;;5049656;28;20128;-54
2023/10/25 11:27:55;;;;;;;17.52;10.23;;;;;;;;;;5051048;28;20546;-50
2023/10/25 11:30:21;;;;;;;21.15;10.27;;;;;;;;;;5051172;28;20044;-50
2023/10/25 11:32:48;;;;;;;15.50;9.52;;;;;;;;;;5051313;28;20090;-55
2023/10/25 11:35:27;;;;;;;17.90;9.68;;;;;;;;;;5051424;28;20074;-55
2023/10/25 11:37:53;;;;;;;16.33;10.57;;;;;;;;;;5051044;28;20029;-55
2023/10/25 11:40:20;;;;;;;18.60;10.13;;;;;;;;;;5051502;28;20037;-56
2023/10/25 11:42:46;;;;;;;16.35;9.73;;;;;;;;;;5051466;28;20106;-55
2023/10/25 11:45:15;;;;;;;18.98;10.43;;;;;;;;;;5050307;28;20176;-53
2023/10/25 11:47:41;;;;;;;17.45;9.70;;;;;;;;;;5051367;28;20024;-55
2023/10/25 11:50:08;;;;;;;16.50;9.60;;;;;;;;;;5051000;28;20433;-54
2023/10/25 11:52:34;;;;;;;14.70;9.68;;;;;;;;;;5051496;28;20068;-54
2023/10/25 11:55:01;;;;;;;15.85;9.98;;;;;;;;;;5049966;28;20065;-58
2023/10/25 11:57:36;;;;;;;15.20;9.45;;;;;;;;;;5051692;28;20047;-54
2023/10/25 12:00:03;;;;;;;16.13;9.60;;;;;;;;;;5050449;28;20032;-56
2023/10/25 12:02:29;;;;;;;16.83;9.82;;;;;;;;;;5038666;28;20558;-52
2023/10/25 12:04:56;;;;;;;15.43;9.98;;;;;;;;;;5031165;28;20097;-55
2023/10/25 12:07:23;;;;;;;17.27;9.68;;;;;;;;;;5030614;28;20026;-55
2023/10/25 12:09:50;;;;;;;17.25;10.35;;;;;;;;;;5030516;28;20647;-55
2023/10/25 12:12:16;;;;;;;15.05;9.10;;;;;;;;;;5031277;28;20033;-56
2023/10/25 12:14:42;;;;;;;19.88;10.38;;;;;;;;;;5030469;28;20478;-54
2023/10/25 12:17:08;;;;;;;17.88;10.02;;;;;;;;;;5030656;28;20091;-53
2023/10/25 12:19:35;;;;;;;16.45;9.80;;;;;;;;;;5030708;28;20427;-57
2023/10/25 12:22:01;;;;;;;15.70;9.35;;;;;;;;;;5029875;28;20029;-57
2023/10/25 12:24:28;;;;;;;17.55;9.30;;;;;;;;;;5030063;28;20197;-56
2023/10/25 12:26:54;;;;;;;17.63;9.68;;;;;;;;;;5030555;28;20293;-55
2023/10/25 12:29:20;;;;;;;16.00;9.88;;;;;;;;;;5028992;28;20033;-55
2023/10/25 12:31:46;;;;;;;16.58;9.88;;;;;;;;;;5030479;28;20022;-56
2023/10/25 12:34:13;;;;;;;20.15;9.68;;;;;;;;;;5030572;28;20087;-56
2023/10/25 12:36:39;;;;;;;16.23;9.73;;;;;;;;;;5030270;28;20021;-55
2023/10/25 12:39:05;;;;;;;15.95;9.65;;;;;;;;;;5028289;28;20064;-54
2023/10/25 12:41:32;;;;;;;16.45;10.05;;;;;;;;;;5039337;28;20033;-55
2023/10/25 12:43:59;;;;;;;15.57;9.55;;;;;;;;;;5050647;28;20029;-55
2023/10/25 12:46:25;;;;;;;15.82;9.70;;;;;;;;;;5050678;28;20117;-55
2023/10/25 12:48:51;;;;;;;16.42;9.52;;;;;;;;;;5050993;28;20486;-57
2023/10/25 12:51:17;;;;;;;17.98;9.35;;;;;;;;;;5050554;28;20020;-54
2023/10/25 12:53:43;;;;;;;16.50;9.90;;;;;;;;;;5050571;28;20044;-53
2023/10/25 12:56:09;;;;;;;19.55;10.23;;;;;;;;;;5050443;28;20437;-59
2023/10/25 12:58:35;;;;;;;16.08;10.07;;;;;;;;;;5050370;28;20020;-54
2023/10/25 13:01:01;;;;;;;23.35;10.13;;;;;;;;;;5041241;28;20495;-51
2023/10/25 13:03:26;;;;;;;19.40;10.93;;;;;;;;;;5040421;28;20029;-55
2023/10/25 13:05:52;;;;;;;16.92;10.23;;;;;;;;;;5040011;28;20028;-55
2023/10/25 13:08:19;;;;;;;18.08;10.48;;;;;;;;;;5038185;28;20721;-57
2023/10/25 13:10:45;;;;;;;18.67;9.88;;;;;;;;;;5039891;28;20043;-56
2023/10/25 13:13:11;;;;;;;20.13;10.70;;;;;;;;;;5039548;28;20534;-55
2023/10/25 13:15:37;;;;;;;16.05;9.85;;;;;;;;;;5038638;28;20104;-55
2023/10/25 13:18:03;;;;;;;17.40;10.27;;;;;;;;;;5040390;28;20024;-56
2023/10/25 13:20:29;;;;;;;17.83;10.75;;;;;;;;;;5032530;28;20036;-54
2023/10/25 13:22:55;;;;;;;16.70;9.90;;;;;;;;;;5028372;28;20033;-53
2023/10/25 13:25:21;;;;;;;19.83;10.48;;;;;;;;;;5029706;28;20018;-56
2023/10/25 13:27:47;;;;;;;18.58;10.05;;;;;;;;;;5028913;28;20041;-53
2023/10/25 13:30:13;;;;;;;20.08;10.40;;;;;;;;;;5028207;28;20030;-57
2023/10/25 13:32:39;;;;;;;22.02;10.35;;;;;;;;;;5029519;28;20033;-50
2023/10/25 13:35:05;;;;;;;17.80;9.90;;;;;;;;;;5029934;28;20029;-53
2023/10/25 13:37:31;;;;;;;18.90;10.50;;;;;;;;;;5030030;28;20112;-54
2023/10/25 13:39:57;;;;;;;17.35;9.90;;;;;;;;;;5029607;28;20021;-56
2023/10/25 13:42:23;;;;;;;19.40;9.98;;;;;;;;;;5029440;28;20467;-53
2023/10/25 13:44:49;;;;;;;20.13;10.27;;;;;;;;;;5030614;28;20029;-53
2023/10/25 13:47:15;;;;;;;18.52;10.43;;;;;;;;;;5041814;28;20025;-54
2023/10/25 13:49:41;;;;;;;20.60;10.65;;;;;;;;;;5033278;28;20045;-54
2023/10/25 13:52:07;;;;;;;19.42;10.27;;;;;;;;;;5031297;28;20021;-53
2023/10/25 13:54:33;;;;;;;19.40;9.98;;;;;;;;;;5028819;28;20033;-54
2023/10/25 13:56:59;;;;;;;18.27;10.57;;;;;;;;;;5029246;28;20394;-52
2023/10/25 13:59:26;;;;;;;20.55;10.98;;;;;;;;;;5029130;28;20017;-54
2023/10/25 14:01:53;;;;;;;18.70;10.20;;;;;;;;;;5029816;28;20025;-57
2023/10/25 14:04:19;;;;;;;21.30;11.20;;;;;;;;;;5029092;28;20029;-56
2023/10/25 14:06:45;;;;;;;19.92;10.65;;;;;;;;;;5029149;28;20021;-52
2023/10/25 14:09:11;;;;;;;20.17;11.38;;;;;;;;;;5028777;28;20095;-57
2023/10/25 14:11:37;;;;;;;18.13;11.05;;;;;;;;;;5043605;28;20515;-58
2023/10/25 14:14:03;;;;;;;17.95;10.95;;;;;;;;;;5035767;28;20027;-57
2023/10/25 14:16:29;;;;;;;22.20;12.70;;;;;;;;;;5028265;28;20029;-58
2023/10/25 14:18:55;;;;;;;17.85;11.77;;;;;;;;;;5028001;28;20040;-51
2023/10/25 14:21:23;;;;;;;18.30;11.52;;;;;;;;;;5027713;28;20033;-57